Time;durP1;ratioP1;P1;durP2;ratioP2;P2;SDS_P1;SDS_P2;PMS_P1;PMS_P2;Temp;Humidity;BMP_temperature;BMP_pressure;BME280_temperature;BME280_humidity;BME280_pressure;Samples;Min_cycle;Max_cycle;Signal;HPM_P1;HPM_P2
2022/12/23 00:00:19;;;;;;;550.97;67.13;;;7.40;99.90;;;;;;5046399;28;20463;-55
2022/12/23 00:02:45;;;;;;;383.45;58.83;;;6.80;99.90;;;;;;5045291;28;20832;-45
2022/12/23 00:05:11;;;;;;;495.60;64.38;;;7.90;99.90;;;;;;5046933;28;20068;-45
2022/12/23 00:07:37;;;;;;;546.42;65.32;;;7.50;99.90;;;;;;5046927;28;20041;-46
2022/12/23 00:10:04;;;;;;;500.25;64.45;;;6.90;99.90;;;;;;5044885;28;20123;-47
2022/12/23 00:15:14;;;;;;;553.65;69.70;;;6.90;99.90;;;;;;5046296;28;20049;-46
2022/12/23 00:17:42;;;;;;;347.15;53.20;;;6.80;99.90;;;;;;5046817;28;20060;-47
2022/12/23 00:20:10;;;;;;;526.92;65.35;;;6.70;99.90;;;;;;5046065;28;20085;-48
2022/12/23 00:25:39;;;;;;;543.53;65.72;;;6.80;99.90;;;;;;5047170;28;20191;-46
2022/12/23 00:28:14;;;;;;;546.92;62.60;;;6.90;99.90;;;;;;5046320;28;20654;-45
2022/12/23 00:30:53;;;;;;;573.65;70.57;;;7.10;99.90;;;;;;5046279;28;20040;-45
2022/12/23 00:33:22;;;;;;;564.22;66.57;;;6.80;99.90;;;;;;5046500;28;20045;-47
2022/12/23 00:35:49;;;;;;;352.40;55.17;;;7.70;99.90;;;;;;5046240;28;20045;-47
2022/12/23 00:38:16;;;;;;;506.27;61.97;;;7.10;99.90;;;;;;5046178;28;20414;-46
2022/12/23 00:43:26;;;;;;;409.05;58.30;;;7.20;99.90;;;;;;5046554;28;20102;-45
2022/12/23 00:45:52;;;;;;;476.80;61.72;;;6.80;99.90;;;;;;5046264;28;20044;-44
2022/12/23 00:51:02;;;;;;;351.58;52.75;;;7.00;99.90;;;;;;5046426;28;20079;-48
2022/12/23 00:53:28;;;;;;;407.80;56.42;;;6.80;99.90;;;;;;5046606;28;20049;-44
2022/12/23 00:55:54;;;;;;;440.88;58.72;;;7.60;99.90;;;;;;5046208;28;20049;-46
2022/12/23 00:58:20;;;;;;;522.90;64.93;;;7.50;99.90;;;;;;5046315;28;20044;-46
2022/12/23 01:06:20;;;;;;;444.85;57.72;;;7.20;99.90;;;;;;5026577;28;20643;-46
2022/12/23 01:08:45;;;;;;;427.45;55.83;;;6.80;99.90;;;;;;5046439;28;20040;-46
2022/12/23 01:11:11;;;;;;;364.13;57.33;;;7.30;99.90;;;;;;5046351;28;20040;-45
2022/12/23 01:13:37;;;;;;;405.30;57.30;;;6.80;99.90;;;;;;5046659;28;20048;-47
2022/12/23 01:16:09;;;;;;;315.42;49.85;;;4.40;99.90;;;;;;5046280;28;20364;-47
2022/12/23 01:18:36;;;;;;;480.70;59.78;;;6.80;99.90;;;;;;5046641;28;20072;-46
2022/12/23 01:21:04;;;;;;;436.83;55.78;;;7.30;99.90;;;;;;5046424;28;20526;-47
2022/12/23 01:23:30;;;;;;;383.05;55.22;;;6.80;99.90;;;;;;5046491;28;20643;-46
2022/12/23 01:26:00;;;;;;;502.85;60.65;;;6.80;99.90;;;;;;5046384;28;20061;-46
2022/12/23 01:28:28;;;;;;;514.95;61.15;;;6.80;99.90;;;;;;5046544;28;20083;-45
2022/12/23 01:30:53;;;;;;;499.15;60.17;;;7.10;99.90;;;;;;5046367;28;20049;-49
2022/12/23 01:33:19;;;;;;;467.70;57.50;;;6.70;99.90;;;;;;5049726;28;20088;-46
2022/12/23 01:35:44;;;;;;;389.15;56.08;;;6.80;99.90;;;;;;5049249;28;20585;-46
2022/12/23 01:38:10;;;;;;;352.48;52.28;;;6.70;99.90;;;;;;5049412;28;20757;-46
2022/12/23 01:40:38;;;;;;;390.02;57.38;;;7.50;99.90;;;;;;5049524;28;20091;-46
2022/12/23 01:43:04;;;;;;;454.77;58.53;;;7.10;99.90;;;;;;5049326;28;20052;-49
2022/12/23 01:45:31;;;;;;;460.45;59.22;;;7.60;99.90;;;;;;5049259;28;20383;-48
2022/12/23 01:48:14;;;;;;;432.45;58.45;;;6.80;99.90;;;;;;5048189;28;20037;-46
2022/12/23 01:51:00;;;;;;;422.77;56.60;;;6.80;99.90;;;;;;5049830;28;20103;-47
2022/12/23 01:53:30;;;;;;;417.63;54.25;;;6.70;99.90;;;;;;5049694;28;20045;-46
2022/12/23 01:56:05;;;;;;;535.08;62.70;;;7.20;99.90;;;;;;5049174;28;20073;-46
2022/12/23 01:58:37;;;;;;;479.55;59.60;;;7.50;99.90;;;;;;5049397;28;20036;-46
2022/12/23 02:03:52;;;;;;;505.33;57.70;;;6.70;99.90;;;;;;5049032;28;20092;-47
2022/12/23 02:09:15;;;;;;;423.35;54.78;;;6.80;99.90;;;;;;5048828;28;20132;-47
2022/12/23 02:12:10;;;;;;;419.85;57.72;;;6.70;99.90;;;;;;5049167;28;20055;-46
2022/12/23 02:17:53;;;;;;;364.77;52.80;;;7.80;99.90;;;;;;5049017;28;20059;-45
2022/12/23 02:20:35;;;;;;;377.65;52.33;;;6.80;99.90;;;;;;5049027;28;20053;-46
2022/12/23 02:23:39;;;;;;;389.65;55.60;;;6.80;99.90;;;;;;5047583;28;20131;-46
2022/12/23 02:26:23;;;;;;;491.30;57.85;;;6.80;99.90;;;;;;5048923;28;20041;-46
2022/12/23 02:29:20;;;;;;;311.20;50.63;;;6.80;99.90;;;;;;5048914;28;20043;-46
2022/12/23 02:32:08;;;;;;;464.95;59.53;;;6.80;99.90;;;;;;5048712;28;20827;-47
2022/12/23 02:34:52;;;;;;;426.50;57.45;;;6.70;99.90;;;;;;5048511;28;20041;-47
2022/12/23 02:37:33;;;;;;;210.73;44.47;;;6.70;99.90;;;;;;5048612;28;20479;-46
2022/12/23 02:40:28;;;;;;;427.63;55.47;;;6.70;99.90;;;;;;5049009;28;20149;-46
2022/12/23 02:42:57;;;;;;;440.55;54.75;;;6.70;99.90;;;;;;5047939;28;20415;-46
2022/12/23 02:45:31;;;;;;;440.10;59.70;;;6.60;99.90;;;;;;5048547;28;20040;-47
2022/12/23 02:48:03;;;;;;;392.98;55.83;;;7.40;99.90;;;;;;5048345;28;20083;-47
2022/12/23 02:50:32;;;;;;;274.05;49.80;;;7.10;99.90;;;;;;5048225;28;20039;-46
2022/12/23 02:53:05;;;;;;;414.35;58.22;;;7.80;99.90;;;;;;5048178;28;20048;-45
2022/12/23 02:55:34;;;;;;;505.40;60.88;;;7.70;99.90;;;;;;5048170;28;20143;-46
2022/12/23 02:58:03;;;;;;;514.42;61.67;;;6.70;99.90;;;;;;5048205;28;20122;-46
2022/12/23 03:00:30;;;;;;;362.95;54.83;;;6.70;99.90;;;;;;5048015;28;20099;-46
2022/12/23 03:02:55;;;;;;;406.05;56.88;;;6.70;99.90;;;;;;5048110;28;20072;-46
2022/12/23 03:05:43;;;;;;;508.63;63.92;;;7.20;99.90;;;;;;5047439;28;20407;-48
2022/12/23 03:08:28;;;;;;;549.13;64.53;;;7.70;99.90;;;;;;5047619;28;20044;-46
2022/12/23 03:11:11;;;;;;;404.15;56.38;;;6.70;99.90;;;;;;5048236;28;20044;-46
2022/12/23 03:13:48;;;;;;;;;;;6.70;99.90;;;;;;5048712;28;20498;-48
2022/12/23 03:16:26;;;;;;;288.42;48.97;;;6.70;99.90;;;;;;5047826;28;20394;-45
2022/12/23 03:18:55;;;;;;;360.30;53.25;;;6.70;99.90;;;;;;5048129;28;20080;-46
2022/12/23 03:21:50;;;;;;;425.50;57.10;;;7.10;99.90;;;;;;5047775;28;20052;-46
2022/12/23 03:24:39;;;;;;;176.80;41.28;;;6.70;99.90;;;;;;5046707;28;20128;-46
2022/12/23 03:27:24;;;;;;;409.50;52.10;;;6.70;99.90;;;;;;5046125;28;20087;-45
2022/12/23 03:30:11;;;;;;;434.65;52.88;;;6.70;99.90;;;;;;5047469;28;20044;-45
2022/12/23 03:32:52;;;;;;;381.27;48.70;;;6.70;99.90;;;;;;5047515;28;20045;-47
2022/12/23 03:35:22;;;;;;;288.80;44.10;;;6.70;99.90;;;;;;5046836;28;20685;-48
2022/12/23 03:37:50;;;;;;;294.20;41.55;;;6.70;99.90;;;;;;5047637;28;20210;-46
2022/12/23 03:40:23;;;;;;;356.10;46.25;;;7.20;99.90;;;;;;5047151;28;20040;-47
2022/12/23 03:42:57;;;;;;;325.33;44.97;;;6.70;99.90;;;;;;5047362;28;20514;-46
2022/12/23 03:45:45;;;;;;;271.15;41.08;;;6.70;99.90;;;;;;5047294;28;20098;-47
2022/12/23 03:48:30;;;;;;;311.90;39.67;;;7.00;99.90;;;;;;5046861;28;20450;-47
2022/12/23 03:50:59;;;;;;;341.17;40.92;;;6.60;99.90;;;;;;5047186;28;20051;-46
2022/12/23 03:53:36;;;;;;;360.17;40.60;;;6.50;99.90;;;;;;5047222;28;20103;-46
2022/12/23 03:56:06;;;;;;;308.80;42.30;;;7.40;99.90;;;;;;5047413;28;20044;-45
2022/12/23 03:58:44;;;;;;;396.60;40.75;;;6.60;99.90;;;;;;5047980;28;20123;-46
2022/12/23 04:01:10;;;;;;;412.85;42.40;;;6.60;99.90;;;;;;5047544;28;20087;-47
2022/12/23 04:03:35;;;;;;;349.77;38.38;;;6.80;99.90;;;;;;5046888;28;20120;-46
2022/12/23 04:06:06;;;;;;;283.88;36.75;;;6.40;99.90;;;;;;5046881;28;20494;-46
2022/12/23 04:08:35;;;;;;;208.60;35.58;;;4.80;99.90;;;;;;5046955;28;20056;-45
2022/12/23 04:11:01;;;;;;;254.50;38.03;;;6.40;99.90;;;;;;5047318;28;20086;-46
2022/12/23 04:13:28;;;;;;;289.15;38.10;;;6.40;99.90;;;;;;5047357;28;20037;-45
2022/12/23 04:15:56;;;;;;;282.88;37.75;;;7.20;99.90;;;;;;5046684;28;20060;-45
2022/12/23 04:18:21;;;;;;;322.35;41.67;;;6.40;99.90;;;;;;5045635;28;20665;-48
2022/12/23 04:20:47;;;;;;;296.27;40.78;;;6.40;99.90;;;;;;5047203;28;20052;-48
2022/12/23 04:23:12;;;;;;;257.17;40.15;;;7.10;99.90;;;;;;5047290;28;20521;-46
2022/12/23 04:25:38;;;;;;;282.35;38.88;;;7.30;99.90;;;;;;5046825;28;20187;-46
2022/12/23 04:28:04;;;;;;;342.08;38.92;;;6.40;99.90;;;;;;5047159;28;20041;-46
2022/12/23 04:30:30;;;;;;;412.27;42.38;;;6.30;99.90;;;;;;5046768;28;20045;-46
2022/12/23 04:32:55;;;;;;;355.63;41.72;;;6.30;99.90;;;;;;5047111;28;20116;-47
2022/12/23 04:35:21;;;;;;;358.92;42.03;;;7.50;99.90;;;;;;5047054;28;20045;-48
2022/12/23 04:37:47;;;;;;;339.45;39.50;;;6.30;99.90;;;;;;5046992;28;20044;-45
2022/12/23 04:40:12;;;;;;;420.02;43.30;;;6.20;99.90;;;;;;5046550;28;20045;-45
2022/12/23 04:42:38;;;;;;;407.08;41.42;;;6.80;99.90;;;;;;5046458;28;20044;-47
2022/12/23 04:45:04;;;;;;;468.45;44.75;;;7.30;99.90;;;;;;5046836;28;20033;-46
2022/12/23 04:47:30;;;;;;;480.52;44.33;;;6.20;99.90;;;;;;5046761;28;20037;-48
2022/12/23 04:49:56;;;;;;;443.48;42.00;;;6.10;99.90;;;;;;5046963;28;20102;-45
2022/12/23 04:52:22;;;;;;;491.38;44.10;;;6.00;99.90;;;;;;5046647;28;20083;-45
2022/12/23 04:54:47;;;;;;;427.13;42.00;;;6.10;99.90;;;;;;5046240;28;20517;-45
2022/12/23 04:57:14;;;;;;;343.90;36.30;;;6.20;99.90;;;;;;5045002;28;20131;-46
2022/12/23 04:59:40;;;;;;;464.38;40.35;;;6.10;99.90;;;;;;5045831;28;20049;-46
2022/12/23 05:02:06;;;;;;;312.95;33.28;;;6.10;99.90;;;;;;5046581;28;20041;-45
2022/12/23 05:04:32;;;;;;;247.43;31.67;;;6.00;99.90;;;;;;5045876;28;20108;-46
2022/12/23 05:06:57;;;;;;;216.88;28.30;;;6.00;99.90;;;;;;5048257;28;20037;-46
2022/12/23 05:09:23;;;;;;;191.88;27.35;;;6.90;99.90;;;;;;5048937;28;20086;-45
2022/12/23 05:11:49;;;;;;;260.13;30.23;;;6.00;99.90;;;;;;5050340;28;20059;-46
2022/12/23 05:14:14;;;;;;;222.68;29.17;;;5.90;99.90;;;;;;5050312;28;20047;-45
2022/12/23 05:16:40;;;;;;;176.23;27.10;;;5.90;99.90;;;;;;5050352;28;20041;-45
2022/12/23 05:19:06;;;;;;;248.27;30.80;;;5.90;99.90;;;;;;5048983;28;20052;-47
2022/12/23 05:21:31;;;;;;;240.32;30.45;;;5.90;99.90;;;;;;5049742;28;20466;-46
2022/12/23 05:23:57;;;;;;;232.15;30.38;;;5.70;99.90;;;;;;5050084;28;20033;-46
2022/12/23 05:26:23;;;;;;;197.85;28.50;;;5.70;99.90;;;;;;5050051;28;20044;-46
2022/12/23 05:28:49;;;;;;;198.73;29.35;;;5.60;99.90;;;;;;5049951;28;20495;-46
2022/12/23 05:31:16;;;;;;;239.75;32.55;;;5.70;99.90;;;;;;5048592;28;20095;-47
2022/12/23 05:33:42;;;;;;;189.43;30.02;;;5.60;99.90;;;;;;5049676;28;20060;-45
2022/12/23 05:36:08;;;;;;;292.33;36.22;;;5.90;99.90;;;;;;5049544;28;20041;-45
2022/12/23 05:38:34;;;;;;;281.90;36.33;;;5.60;99.90;;;;;;5049884;28;20067;-46
2022/12/23 05:41:01;;;;;;;246.80;35.45;;;5.80;99.90;;;;;;5049862;28;20487;-44
2022/12/23 05:43:26;;;;;;;380.52;38.58;;;5.60;99.90;;;;;;5050246;28;20078;-47
2022/12/23 05:45:52;;;;;;;346.15;37.15;;;5.50;99.90;;;;;;5049770;28;20033;-46
2022/12/23 05:48:18;;;;;;;406.67;41.58;;;5.50;99.90;;;;;;5049571;28;20045;-46
2022/12/23 05:50:43;;;;;;;432.58;41.13;;;6.40;99.90;;;;;;5049740;28;20052;-48
2022/12/23 05:53:09;;;;;;;324.98;38.17;;;5.50;99.90;;;;;;5050126;28;20084;-46
2022/12/23 05:55:35;;;;;;;342.38;37.95;;;6.60;99.90;;;;;;5049199;28;20048;-47
2022/12/23 05:58:01;;;;;;;450.42;43.78;;;5.60;99.90;;;;;;5049533;28;20049;-46
2022/12/23 06:00:28;;;;;;;401.27;40.95;;;5.60;99.90;;;;;;5049249;28;20118;-45
2022/12/23 06:02:53;;;;;;;348.23;35.92;;;5.70;99.90;;;;;;5049312;28;20056;-46
2022/12/23 06:05:19;;;;;;;379.90;36.72;;;5.70;99.90;;;;;;5048718;28;20057;-46
2022/12/23 06:07:45;;;;;;;363.02;39.35;;;5.60;99.90;;;;;;5048790;28;20477;-46
2022/12/23 06:10:10;;;;;;;357.48;38.40;;;5.70;99.90;;;;;;5049077;28;20044;-45
2022/12/23 06:12:37;;;;;;;425.70;40.88;;;5.70;99.90;;;;;;5049510;28;20695;-46
2022/12/23 06:15:04;;;;;;;452.63;39.25;;;5.70;99.90;;;;;;5049037;28;20095;-47
2022/12/23 06:17:29;;;;;;;533.47;44.40;;;5.70;99.90;;;;;;5048110;28;20470;-48
2022/12/23 06:19:55;;;;;;;405.17;38.47;;;5.60;99.90;;;;;;5048917;28;20073;-47
2022/12/23 06:22:22;;;;;;;368.65;36.33;;;5.60;99.90;;;;;;5049135;28;20595;-46
2022/12/23 06:24:48;;;;;;;405.60;36.35;;;5.90;99.90;;;;;;5049201;28;20049;-47
2022/12/23 06:27:14;;;;;;;444.85;37.83;;;5.60;99.90;;;;;;5049043;28;20044;-46
2022/12/23 06:29:40;;;;;;;366.17;35.58;;;5.70;99.90;;;;;;5049069;28;20044;-47
2022/12/23 06:32:06;;;;;;;377.55;36.25;;;5.60;99.90;;;;;;5048881;28;20502;-46
2022/12/23 06:34:32;;;;;;;416.75;40.80;;;5.70;99.90;;;;;;5048654;28;20063;-46
2022/12/23 06:36:58;;;;;;;442.40;40.15;;;5.90;99.90;;;;;;5049299;28;20119;-47
2022/12/23 06:39:23;;;;;;;357.40;36.05;;;5.70;99.90;;;;;;5048963;28;20045;-46
2022/12/23 06:41:49;;;;;;;439.90;39.03;;;5.70;99.90;;;;;;5049016;28;20043;-47
2022/12/23 06:44:15;;;;;;;359.92;34.60;;;6.70;99.90;;;;;;5048369;28;20041;-46
2022/12/23 06:46:40;;;;;;;334.23;34.33;;;5.70;99.90;;;;;;5048327;28;20140;-47
2022/12/23 06:49:06;;;;;;;321.70;33.95;;;5.70;99.90;;;;;;5048072;28;20489;-46
2022/12/23 06:51:32;;;;;;;351.63;34.83;;;5.70;99.90;;;;;;5048144;28;20048;-47
2022/12/23 06:53:59;;;;;;;307.55;31.95;;;5.70;99.90;;;;;;5048234;28;20447;-49
2022/12/23 06:56:24;;;;;;;383.63;36.83;;;6.70;99.90;;;;;;5048192;28;20052;-46
2022/12/23 06:58:51;;;;;;;277.70;30.98;;;5.70;99.90;;;;;;5048420;28;20118;-47
2022/12/23 07:01:18;;;;;;;290.00;33.63;;;5.70;99.90;;;;;;5047859;28;20506;-47
2022/12/23 07:03:43;;;;;;;289.73;33.28;;;6.80;99.90;;;;;;5048030;28;20091;-47
2022/12/23 07:06:09;;;;;;;353.65;35.33;;;5.80;99.90;;;;;;5047681;28;20101;-46
2022/12/23 07:08:35;;;;;;;268.75;33.83;;;6.90;99.90;;;;;;5048376;28;20501;-46
2022/12/23 07:11:02;;;;;;;309.77;31.70;;;5.70;99.90;;;;;;5047983;28;20550;-48
2022/12/23 07:13:29;;;;;;;367.92;35.67;;;6.00;99.90;;;;;;5046617;28;20055;-46
2022/12/23 07:15:55;;;;;;;315.35;34.88;;;5.80;99.90;;;;;;5047529;28;20126;-47
2022/12/23 07:18:22;;;;;;;270.30;31.15;;;5.80;99.90;;;;;;5047935;28;20185;-46
2022/12/23 07:20:48;;;;;;;313.60;33.65;;;5.70;99.90;;;;;;5047725;28;20045;-48
2022/12/23 07:23:14;;;;;;;290.30;31.48;;;5.80;99.90;;;;;;5047542;28;20183;-48
2022/12/23 07:25:39;;;;;;;318.70;33.60;;;6.70;99.90;;;;;;5047638;28;20155;-47
2022/12/23 07:28:05;;;;;;;344.02;33.85;;;5.80;99.90;;;;;;5047288;28;20045;-46
2022/12/23 07:30:31;;;;;;;194.63;25.55;;;5.80;99.90;;;;;;5047247;28;20251;-46
2022/12/23 07:32:56;;;;;;;260.27;29.23;;;5.80;99.90;;;;;;5045997;28;20045;-45
2022/12/23 07:35:22;;;;;;;196.15;26.20;;;5.80;99.90;;;;;;5047381;28;20056;-47
2022/12/23 07:37:52;;;;;;;192.48;26.75;;;6.90;99.90;;;;;;5047599;28;20402;-46
2022/12/23 07:40:18;;;;;;;274.25;29.55;;;6.70;99.90;;;;;;5047406;28;20049;-47
2022/12/23 07:42:53;;;;;;;249.98;29.02;;;6.70;99.90;;;;;;5047311;28;20089;-47
2022/12/23 07:45:18;;;;;;;336.67;32.10;;;5.90;99.90;;;;;;5047099;28;20044;-46
2022/12/23 07:47:44;;;;;;;336.58;32.97;;;5.80;99.90;;;;;;5047149;28;20033;-46
2022/12/23 07:50:10;;;;;;;297.95;30.50;;;6.20;99.90;;;;;;5047213;28;20048;-47
2022/12/23 07:52:36;;;;;;;149.32;22.90;;;5.80;99.90;;;;;;5047662;28;20052;-46
2022/12/23 07:55:02;;;;;;;218.27;26.70;;;5.80;99.90;;;;;;5047522;28;20037;-47
2022/12/23 07:57:28;;;;;;;149.68;22.70;;;5.80;99.90;;;;;;5047252;28;20505;-46
2022/12/23 07:59:53;;;;;;;200.90;25.35;;;6.70;99.90;;;;;;5047373;28;20049;-47
2022/12/23 08:02:22;;;;;;;275.88;27.02;;;5.80;99.90;;;;;;5046950;28;20131;-49
2022/12/23 08:04:48;;;;;;;139.50;23.00;;;5.80;99.90;;;;;;5046404;28;20041;-46
2022/12/23 08:07:13;;;;;;;164.20;24.02;;;5.60;99.90;;;;;;5047081;28;20113;-47
2022/12/23 08:09:39;;;;;;;164.18;23.55;;;6.90;99.90;;;;;;5047193;28;20044;-48
2022/12/23 08:12:05;;;;;;;150.77;23.45;;;5.80;99.90;;;;;;5047382;28;20103;-48
2022/12/23 08:14:31;;;;;;;122.65;20.63;;;5.80;99.90;;;;;;5047232;28;20052;-47
2022/12/23 08:16:56;;;;;;;175.68;23.98;;;5.90;99.90;;;;;;5046949;28;20167;-47
2022/12/23 08:19:22;;;;;;;150.07;22.73;;;5.80;99.90;;;;;;5047127;28;20041;-47
2022/12/23 08:21:47;;;;;;;199.68;25.65;;;5.90;99.90;;;;;;5046601;28;20390;-46
2022/12/23 08:24:13;;;;;;;128.93;22.85;;;5.90;99.90;;;;;;5046909;28;20045;-47
2022/12/23 08:26:39;;;;;;;129.52;21.20;;;5.90;99.90;;;;;;5047365;28;20041;-47
2022/12/23 08:29:04;;;;;;;107.25;19.55;;;6.00;99.90;;;;;;5047015;28;20052;-46
2022/12/23 08:31:30;;;;;;;108.45;20.20;;;6.80;99.90;;;;;;5046349;28;20056;-47
2022/12/23 08:33:58;;;;;;;113.63;20.17;;;6.10;99.90;;;;;;5036088;28;20917;-47
2022/12/23 08:36:29;;;;;;;113.43;20.95;;;6.10;99.90;;;;;;5046299;28;20055;-47
2022/12/23 08:38:56;;;;;;;106.40;20.50;;;6.80;99.90;;;;;;5047408;28;20045;-48
2022/12/23 08:41:28;;;;;;;110.95;18.67;;;7.10;99.90;;;;;;5048048;28;20539;-48
2022/12/23 08:43:54;;;;;;;85.15;17.67;;;6.20;99.90;;;;;;5051496;28;20083;-46
2022/12/23 08:46:20;;;;;;;123.65;21.52;;;6.20;99.90;;;;;;5050860;28;20040;-55
2022/12/23 08:48:46;;;;;;;185.00;24.05;;;6.20;99.90;;;;;;5046413;28;20048;-46
2022/12/23 08:51:15;;;;;;;90.25;19.08;;;6.70;99.90;;;;;;5047319;28;20049;-46
2022/12/23 08:53:41;;;;;;;110.32;20.10;;;6.20;99.90;;;;;;5049625;28;20057;-48
2022/12/23 08:56:12;;;;;;;109.68;20.75;;;6.20;99.90;;;;;;5049638;28;20110;-48
2022/12/23 08:58:44;;;;;;;98.60;20.17;;;6.30;99.90;;;;;;5049174;28;20083;-56
2022/12/23 09:01:11;;;;;;;134.80;21.90;;;6.30;99.90;;;;;;5049993;28;20088;-48
2022/12/23 09:03:38;;;;;;;168.95;23.33;;;7.60;99.90;;;;;;5048725;28;20049;-57
2022/12/23 09:06:10;;;;;;;106.82;20.95;;;7.50;99.90;;;;;;5049401;28;20053;-56
2022/12/23 09:08:36;;;;;;;79.47;19.73;;;7.30;99.90;;;;;;5049542;28;20049;-58
2022/12/23 09:11:02;;;;;;;96.97;18.67;;;6.60;99.90;;;;;;5051086;28;20045;-56
2022/12/23 09:13:29;;;;;;;100.20;20.10;;;7.50;99.90;;;;;;5052766;28;20064;-55
2022/12/23 09:15:55;;;;;;;97.63;19.75;;;6.60;99.90;;;;;;5052147;28;20485;-56
2022/12/23 09:18:20;;;;;;;90.88;18.98;;;6.60;99.90;;;;;;5051889;28;20852;-55
2022/12/23 09:20:46;;;;;;;74.22;17.92;;;6.70;99.90;;;;;;5052696;28;20044;-47
2022/12/23 09:23:12;;;;;;;83.78;18.20;;;7.10;99.90;;;;;;5048843;28;20433;-48
2022/12/23 09:25:38;;;;;;;90.20;18.48;;;6.80;99.90;;;;;;5048936;28;20088;-47
2022/12/23 09:28:05;;;;;;;74.85;18.10;;;7.00;99.90;;;;;;5048935;28;20056;-49
2022/12/23 09:30:31;;;;;;;79.28;18.77;;;7.80;99.90;;;;;;5049218;28;20045;-47
2022/12/23 09:32:56;;;;;;;83.85;18.58;;;6.90;99.90;;;;;;5048470;28;20616;-48
2022/12/23 09:35:22;;;;;;;97.75;19.05;;;6.90;99.90;;;;;;5049060;28;20153;-47
2022/12/23 09:37:48;;;;;;;94.53;19.17;;;8.30;99.90;;;;;;5049210;28;20080;-48
2022/12/23 09:40:16;;;;;;;82.70;18.20;;;7.20;99.90;;;;;;5048581;28;20053;-44
2022/12/23 09:42:56;;;;;;;77.18;18.38;;;7.20;99.90;;;;;;5049067;28;20032;-50
2022/12/23 09:45:56;;;;;;;85.22;18.75;;;7.80;99.90;;;;;;5048777;28;20041;-48
2022/12/23 09:48:27;;;;;;;81.20;17.60;;;7.30;99.90;;;;;;5049148;28;20041;-45
2022/12/23 09:50:54;;;;;;;163.32;20.25;;;7.20;99.90;;;;;;5048743;28;20049;-45
2022/12/23 09:53:33;;;;;;;129.45;19.17;;;8.30;99.90;;;;;;5048005;28;20104;-47
2022/12/23 09:56:06;;;;;;;98.00;19.73;;;7.70;99.90;;;;;;5048528;28;20053;-43
2022/12/23 09:58:42;;;;;;;101.85;17.98;;;7.40;99.90;;;;;;5048492;28;20075;-44
2022/12/23 10:01:29;;;;;;;70.57;16.85;;;7.50;99.90;;;;;;5048431;28;20098;-45
2022/12/23 10:04:38;;;;;;;71.10;16.45;;;7.60;99.90;;;;;;5048173;28;20102;-46
2022/12/23 10:07:04;;;;;;;75.22;16.55;;;7.70;99.90;;;;;;5037826;28;20049;-49
2022/12/23 10:09:39;;;;;;;71.25;17.27;;;7.80;99.90;;;;;;5047964;28;20048;-45
2022/12/23 10:12:25;;;;;;;90.53;18.17;;;7.80;99.90;;;;;;5046548;28;20080;-45
2022/12/23 10:14:54;;;;;;;74.75;17.48;;;7.90;99.90;;;;;;5048420;28;20049;-48
2022/12/23 10:17:32;;;;;;;90.20;18.35;;;8.00;99.90;;;;;;5047818;28;20045;-47
2022/12/23 10:20:01;;;;;;;95.45;17.60;;;7.90;99.90;;;;;;5048184;28;20045;-47
2022/12/23 10:22:39;;;;;;;159.85;20.98;;;7.90;99.90;;;;;;5047510;28;20569;-47
2022/12/23 10:25:24;;;;;;;50.88;15.55;;;8.10;99.90;;;;;;5048101;28;20110;-50
2022/12/23 10:27:49;;;;;;;112.07;18.30;;;7.80;99.90;;;;;;5047856;28;20043;-47
2022/12/23 10:30:17;;;;;;;57.65;16.13;;;7.80;99.90;;;;;;5047586;28;20048;-47
2022/12/23 10:33:05;;;;;;;52.92;15.55;;;7.80;99.90;;;;;;5046815;28;20041;-46
2022/12/23 10:35:52;;;;;;;64.80;17.42;;;8.50;99.90;;;;;;5046704;28;20135;-47
2022/12/23 10:38:26;;;;;;;53.83;17.13;;;7.80;99.90;;;;;;5047660;28;20081;-49
2022/12/23 10:41:04;;;;;;;54.92;19.48;;;7.90;99.90;;;;;;5047331;28;20087;-50
2022/12/23 10:43:30;;;;;;;52.20;17.88;;;7.90;99.90;;;;;;5047154;28;20080;-47
2022/12/23 10:46:19;;;;;;;104.05;19.55;;;8.40;99.90;;;;;;5047354;28;20048;-48
2022/12/23 10:49:19;;;;;;;68.97;17.95;;;8.00;99.90;;;;;;5047509;28;20116;-47
2022/12/23 10:51:52;;;;;;;93.57;17.55;;;8.00;99.90;;;;;;5047576;28;20101;-47
2022/12/23 10:54:31;;;;;;;102.20;16.90;;;8.80;99.90;;;;;;5047542;28;20041;-48
2022/12/23 10:56:57;;;;;;;45.13;13.90;;;8.40;99.90;;;;;;5047581;28;20467;-47
2022/12/23 10:59:30;;;;;;;40.53;13.45;;;8.00;99.90;;;;;;5047176;28;20052;-49
2022/12/23 11:02:27;;;;;;;52.95;14.30;;;8.00;99.90;;;;;;5046796;28;20116;-46
2022/12/23 11:04:52;;;;;;;41.65;12.90;;;8.00;99.90;;;;;;5046178;28;20572;-46
2022/12/23 11:07:22;;;;;;;39.10;11.95;;;7.90;99.90;;;;;;5047370;28;20046;-44
2022/12/23 11:10:28;;;;;;;33.63;12.15;;;8.40;99.90;;;;;;5047350;28;20045;-44
2022/12/23 11:12:53;;;;;;;87.32;14.05;;;8.00;99.90;;;;;;5046151;28;20463;-44
2022/12/23 11:15:28;;;;;;;35.83;12.02;;;8.50;99.90;;;;;;5047654;28;20098;-44
2022/12/23 11:18:16;;;;;;;56.63;13.27;;;8.00;99.90;;;;;;5047364;28;20134;-45
2022/12/23 11:20:44;;;;;;;46.92;13.10;;;8.00;99.90;;;;;;5046915;28;20503;-48
2022/12/23 11:23:31;;;;;;;34.42;12.35;;;8.00;99.90;;;;;;5046889;28;20071;-49
2022/12/23 11:26:07;;;;;;;35.72;10.57;;;7.90;99.90;;;;;;5046967;28;20045;-47
2022/12/23 11:28:37;;;;;;;46.97;13.82;;;7.90;99.90;;;;;;5046636;28;20049;-48
2022/12/23 11:31:06;;;;;;;49.80;13.38;;;8.90;99.90;;;;;;5046254;28;20045;-47
2022/12/23 11:33:39;;;;;;;47.53;14.55;;;8.00;99.90;;;;;;5046258;28;20044;-47
2022/12/23 11:36:24;;;;;;;48.35;13.95;;;8.00;99.90;;;;;;5046734;28;20044;-45
2022/12/23 11:38:53;;;;;;;47.65;13.88;;;8.00;99.90;;;;;;5046373;28;20048;-45
2022/12/23 11:41:24;;;;;;;49.08;14.45;;;8.00;99.90;;;;;;5046142;28;20052;-44
2022/12/23 11:43:58;;;;;;;40.55;13.77;;;8.00;99.90;;;;;;5045984;28;20044;-46
2022/12/23 11:46:27;;;;;;;44.38;14.70;;;8.00;99.90;;;;;;5046028;28;20040;-46
2022/12/23 11:49:11;;;;;;;43.63;14.45;;;7.90;99.90;;;;;;5045916;28;20048;-50
2022/12/23 11:51:37;;;;;;;44.03;14.43;;;8.20;99.90;;;;;;5046260;28;20083;-48
2022/12/23 11:54:03;;;;;;;37.38;14.15;;;8.50;99.90;;;;;;5044839;28;20044;-43
2022/12/23 11:56:35;;;;;;;41.35;13.20;;;7.90;99.90;;;;;;5045948;28;20080;-45
2022/12/23 11:59:29;;;;;;;41.55;13.90;;;7.90;99.90;;;;;;5045889;28;20571;-42
2022/12/23 12:02:18;;;;;;;38.92;12.90;;;7.90;99.90;;;;;;5043871;28;20045;-41
2022/12/23 12:04:54;;;;;;;42.25;14.93;;;7.80;99.90;;;;;;5045299;28;20550;-42
2022/12/23 12:07:20;;;;;;;54.95;16.30;;;7.70;99.90;;;;;;5045967;28;20040;-43
2022/12/23 12:09:46;;;;;;;52.58;16.40;;;7.80;99.90;;;;;;5045589;28;20040;-43
2022/12/23 12:12:18;;;;;;;48.78;14.05;;;8.50;99.90;;;;;;5045822;28;20654;-45
2022/12/23 12:14:48;;;;;;;43.30;14.87;;;7.80;99.90;;;;;;5045601;28;20092;-45
2022/12/23 12:17:37;;;;;;;51.28;15.73;;;8.00;99.90;;;;;;5045484;28;20068;-45
2022/12/23 12:20:16;;;;;;;41.42;14.20;;;7.80;99.90;;;;;;5045947;28;20052;-46
2022/12/23 12:22:53;;;;;;;44.47;14.13;;;7.80;99.90;;;;;;5045905;28;20040;-50
2022/12/23 12:25:23;;;;;;;36.00;13.38;;;7.90;99.90;;;;;;5045863;28;20425;-45
2022/12/23 12:28:38;;;;;;;45.10;14.90;;;7.80;99.90;;;;;;5046416;28;20073;-46
2022/12/23 12:31:26;;;;;;;45.90;15.10;;;7.80;99.90;;;;;;5044143;28;20742;-44
2022/12/23 12:34:04;;;;;;;43.83;14.43;;;7.80;99.90;;;;;;5046378;28;20128;-44
2022/12/23 12:36:49;;;;;;;44.25;14.73;;;7.80;99.90;;;;;;5046156;28;20044;-47
2022/12/23 12:39:27;;;;;;;37.33;13.63;;;7.80;99.90;;;;;;5046121;28;20040;-47
2022/12/23 12:41:59;;;;;;;43.35;15.32;;;7.80;99.90;;;;;;5044413;28;20045;-46
2022/12/23 12:44:36;;;;;;;46.10;16.60;;;7.80;99.90;;;;;;5046100;28;20052;-46
2022/12/23 12:47:12;;;;;;;46.13;16.85;;;7.70;99.90;;;;;;5045896;28;20121;-47
2022/12/23 12:49:49;;;;;;;42.80;16.00;;;7.90;99.90;;;;;;5046172;28;20036;-51
2022/12/23 12:52:20;;;;;;;45.80;16.55;;;7.60;99.90;;;;;;5044852;28;20188;-48
2022/12/23 12:54:52;;;;;;;49.00;17.15;;;7.60;99.90;;;;;;5045919;28;20045;-47
2022/12/23 12:57:21;;;;;;;44.55;17.55;;;7.60;99.90;;;;;;5045393;28;20051;-46
2022/12/23 12:59:53;;;;;;;41.10;16.48;;;7.60;99.90;;;;;;5045671;28;20080;-46
2022/12/23 13:02:38;;;;;;;43.30;16.08;;;7.60;99.90;;;;;;5045559;28;20029;-52
2022/12/23 13:05:32;;;;;;;46.88;14.85;;;7.60;99.90;;;;;;5046079;28;20162;-55
2022/12/23 13:08:30;;;;;;;40.85;15.73;;;7.80;99.90;;;;;;5049359;28;20044;-52
2022/12/23 13:11:01;;;;;;;45.38;16.35;;;7.50;99.90;;;;;;5047782;28;20044;-53
2022/12/23 13:13:45;;;;;;;44.28;17.08;;;7.50;99.90;;;;;;5046975;28;20103;-55
2022/12/23 13:16:19;;;;;;;48.17;16.95;;;7.40;99.90;;;;;;5046652;28;20621;-56